createdAt,value
2023-04-15T00:01:20.010Z,31.05
2023-04-15T00:03:53.915Z,42.83
2023-04-15T00:06:23.210Z,40.45
2023-04-15T00:08:51.988Z,32.53
2023-04-15T00:11:20.793Z,36.67
2023-04-15T00:13:49.621Z,36.33
2023-04-15T00:16:18.502Z,39.40
2023-04-15T00:18:47.353Z,31.25
2023-04-15T00:21:17.597Z,29.77
2023-04-15T00:23:49.822Z,35.53
2023-04-15T00:26:19.343Z,37.53
2023-04-15T00:28:49.687Z,35.88
2023-04-15T00:31:18.782Z,37.80
2023-04-15T00:33:48.810Z,35.45
2023-04-15T00:36:19.050Z,34.33
2023-04-15T00:38:48.267Z,40.97
2023-04-15T00:41:17.208Z,34.78
2023-04-15T00:43:46.322Z,34.15
2023-04-15T00:46:17.194Z,37.65
2023-04-15T00:48:46.844Z,30.10
2023-04-15T00:51:15.928Z,38.88
2023-04-15T00:53:46.134Z,32.03
2023-04-15T00:56:15.426Z,43.42
2023-04-15T00:58:44.459Z,40.17
2023-04-15T01:01:14.140Z,32.42
2023-04-15T01:03:43.248Z,38.97
2023-04-15T01:06:12.716Z,30.90
2023-04-15T01:08:42.174Z,29.85
2023-04-15T01:11:13.998Z,19.30
2023-04-15T01:13:43.128Z,19.60
2023-04-15T01:16:13.197Z,18.52
2023-04-15T01:18:42.667Z,20.40
2023-04-15T01:21:12.026Z,18.63
2023-04-15T01:23:40.945Z,19.90
2023-04-15T01:26:11.369Z,18.48
2023-04-15T01:28:40.902Z,18.23
2023-04-15T01:31:11.717Z,24.00
2023-04-15T01:33:41.358Z,15.52
2023-04-15T01:36:28.516Z,13.45
2023-04-15T01:38:58.418Z,15.75
2023-04-15T01:41:29.281Z,12.95
2023-04-15T01:43:59.401Z,16.40
2023-04-15T01:46:29.661Z,16.98
2023-04-15T01:49:00.138Z,20.38
2023-04-15T01:51:31.149Z,28.60
2023-04-15T01:54:01.576Z,25.10
2023-04-15T01:56:34.814Z,24.60
2023-04-15T01:59:06.753Z,36.47
2023-04-15T02:01:37.017Z,20.85
2023-04-15T02:04:08.291Z,23.55
2023-04-15T02:06:38.436Z,29.88
2023-04-15T02:09:08.584Z,39.45
2023-04-15T02:11:40.069Z,35.55
2023-04-15T02:14:10.209Z,26.45
2023-04-15T02:16:40.619Z,38.42
2023-04-15T02:19:10.906Z,27.58
2023-04-15T02:21:41.656Z,20.45
2023-04-15T02:24:12.467Z,19.17
2023-04-15T02:26:46.790Z,24.38
2023-04-15T02:29:16.944Z,17.13
2023-04-15T02:31:48.210Z,23.33
2023-04-15T02:34:18.798Z,24.77
2023-04-15T02:36:49.837Z,36.88
2023-04-15T02:39:20.168Z,24.42
2023-04-15T02:41:52.571Z,27.17
2023-04-15T02:44:24.975Z,22.83
2023-04-15T02:46:59.587Z,19.92
2023-04-15T02:49:31.099Z,20.35
2023-04-15T02:52:02.013Z,20.48
2023-04-15T02:54:34.015Z,21.88
2023-04-15T02:57:06.912Z,20.33
2023-04-15T02:59:37.376Z,17.42
2023-04-15T03:02:08.619Z,19.92
2023-04-15T03:04:39.822Z,21.05
2023-04-15T03:07:09.995Z,17.10
2023-04-15T03:09:41.338Z,20.02
2023-04-15T03:12:13.276Z,21.30
2023-04-15T03:14:43.368Z,28.05
2023-04-15T03:17:13.538Z,28.38
2023-04-15T03:19:43.782Z,27.77
2023-04-15T03:22:14.992Z,27.45
2023-04-15T03:24:45.124Z,23.23
2023-04-15T03:27:17.064Z,20.23
2023-04-15T03:29:47.410Z,23.52
2023-04-15T03:32:19.753Z,15.98
2023-04-15T03:34:49.940Z,20.20
2023-04-15T03:37:20.023Z,27.20
2023-04-15T03:39:50.155Z,25.52
2023-04-15T03:42:21.648Z,24.67
2023-04-15T03:44:52.414Z,21.23
2023-04-15T03:47:22.580Z,23.38
2023-04-15T03:49:52.668Z,28.55
2023-04-15T03:52:22.795Z,20.90
2023-04-15T03:54:53.122Z,27.35
2023-04-15T03:57:24.722Z,23.77
2023-04-15T03:59:54.801Z,24.35
2023-04-15T04:02:25.031Z,24.52
2023-04-15T04:04:55.437Z,33.38
2023-04-15T04:07:25.840Z,60.30
2023-04-15T04:09:56.180Z,55.90
2023-04-15T04:12:27.640Z,41.08
2023-04-15T04:14:57.782Z,30.45
2023-04-15T04:17:27.907Z,28.48
2023-04-15T04:19:58.036Z,24.60
2023-04-15T04:22:28.217Z,25.73
2023-04-15T04:24:59.455Z,26.67
2023-04-15T04:27:30.939Z,27.75
2023-04-15T04:30:01.142Z,44.28
2023-04-15T04:32:31.795Z,54.88
2023-04-15T04:35:02.009Z,50.05
2023-04-15T04:37:32.133Z,63.42
2023-04-15T04:40:02.814Z,79.85
2023-04-15T04:42:34.270Z,63.95
2023-04-15T04:45:04.506Z,64.72
2023-04-15T04:47:34.736Z,79.15
2023-04-15T04:50:05.317Z,84.03
2023-04-15T04:52:35.426Z,62.67
2023-04-15T04:55:06.624Z,59.55
2023-04-15T04:57:39.591Z,56.22
2023-04-15T05:00:10.669Z,62.63
2023-04-15T05:02:41.922Z,53.85
2023-04-15T05:05:13.388Z,40.67
2023-04-15T05:07:43.637Z,36.70
2023-04-15T05:10:14.824Z,27.60
2023-04-15T05:12:46.345Z,17.77
2023-04-15T05:15:16.418Z,11.02
2023-04-15T05:17:46.860Z,13.65
2023-04-15T05:20:17.028Z,12.60
2023-04-15T05:22:47.283Z,18.48
2023-04-15T05:25:17.989Z,24.85
2023-04-15T05:27:49.563Z,27.13
2023-04-15T05:30:20.059Z,37.42
2023-04-15T05:32:50.377Z,30.92
2023-04-15T05:35:20.592Z,30.10
2023-04-15T05:37:50.711Z,25.35
2023-04-15T05:40:21.181Z,23.70
2023-04-15T05:42:52.769Z,28.85
2023-04-15T05:45:22.880Z,34.97
2023-04-15T05:47:54.462Z,27.34
2023-04-15T05:50:24.662Z,35.85
2023-04-15T05:52:54.834Z,38.30
2023-04-15T05:55:24.999Z,34.80
2023-04-15T05:57:56.604Z,26.55
2023-04-15T06:00:27.463Z,23.95
2023-04-15T06:02:58.026Z,18.73
2023-04-15T06:05:28.269Z,20.42
2023-04-15T06:07:58.447Z,19.85
2023-04-15T06:10:28.579Z,18.73
2023-04-15T06:13:00.169Z,18.67
2023-04-15T06:15:31.271Z,15.85
2023-04-15T06:18:02.151Z,9.75
2023-04-15T06:20:32.717Z,10.35
2023-04-15T06:23:03.290Z,10.25
2023-04-15T06:25:33.433Z,11.00
2023-04-15T06:28:05.503Z,11.35
2023-04-15T06:30:36.930Z,8.68
2023-04-15T06:33:07.524Z,9.52
2023-04-15T06:35:37.848Z,8.35
2023-04-15T06:38:07.969Z,11.23
2023-04-15T06:40:38.166Z,14.25
2023-04-15T06:43:10.356Z,15.07
2023-04-15T06:45:40.554Z,18.77
2023-04-15T06:48:10.867Z,13.23
2023-04-15T06:50:41.641Z,8.43
2023-04-15T06:53:11.821Z,8.45
2023-04-15T06:55:41.897Z,5.93
2023-04-15T06:58:13.379Z,7.97
2023-04-15T07:00:43.522Z,10.57
2023-04-15T07:05:16.911Z,4.63
2023-04-15T07:07:47.226Z,4.03
2023-04-15T07:10:17.394Z,3.05
2023-04-15T07:12:47.519Z,2.30
2023-04-15T07:15:17.908Z,4.15
2023-04-15T07:17:48.220Z,8.45
2023-04-15T07:20:20.015Z,2.00
2023-04-15T07:22:50.144Z,8.73
2023-04-15T07:25:20.323Z,2.10
2023-04-15T07:27:50.632Z,7.75
2023-04-15T07:30:20.739Z,6.35
2023-04-15T07:32:50.935Z,1.60
2023-04-15T07:35:22.652Z,2.17
2023-04-15T07:37:52.810Z,1.50
2023-04-15T07:40:23.528Z,7.30
2023-04-15T07:42:53.739Z,1.30
2023-04-15T07:45:23.855Z,0.75
2023-04-15T07:47:54.051Z,2.42
2023-04-15T07:50:26.315Z,0.82
2023-04-15T07:52:57.387Z,0.20
2023-04-15T07:55:28.291Z,1.52
2023-04-15T07:57:58.564Z,0.68
2023-04-15T08:00:28.781Z,0.88
2023-04-15T08:02:59.668Z,2.65
2023-04-15T08:05:31.330Z,2.92
2023-04-15T08:08:02.065Z,1.40
2023-04-15T08:10:32.366Z,0.60
2023-04-15T08:13:03.274Z,0.73
2023-04-15T08:15:34.021Z,3.80
2023-04-15T08:18:04.582Z,1.55
2023-04-15T08:20:36.190Z,1.65
2023-04-15T08:23:06.331Z,1.17
2023-04-15T08:25:36.972Z,0.73
2023-04-15T08:28:08.049Z,4.30
2023-04-15T08:30:38.219Z,1.83
2023-04-15T08:33:08.391Z,0.55
2023-04-15T08:35:39.921Z,0.73
2023-04-15T08:38:10.028Z,1.33
2023-04-15T08:40:43.809Z,1.83
2023-04-15T08:43:19.933Z,1.60
2023-04-15T08:45:51.925Z,0.68
2023-04-15T08:48:24.677Z,0.85
2023-04-15T08:50:56.659Z,1.05
2023-04-15T08:53:27.678Z,0.55
2023-04-15T08:55:59.334Z,1.48
2023-04-15T08:58:29.662Z,1.23
2023-04-15T09:01:00.215Z,2.13
2023-04-15T09:03:31.747Z,1.15
2023-04-15T09:06:05.846Z,1.33
2023-04-15T09:08:36.166Z,2.25
2023-04-15T09:11:06.630Z,1.45
2023-04-15T09:13:37.072Z,1.20
2023-04-15T09:16:08.482Z,0.65
2023-04-15T09:18:40.082Z,0.25
2023-04-15T09:21:13.299Z,1.33
2023-04-15T09:23:56.205Z,4.60
2023-04-15T09:26:33.735Z,3.85
2023-04-15T09:29:06.781Z,2.00
2023-04-15T09:31:37.411Z,5.85
2023-04-15T09:34:07.893Z,0.90
2023-04-15T09:36:54.165Z,3.13
2023-04-15T09:39:24.391Z,0.65
2023-04-15T09:42:06.939Z,0.77
2023-04-15T09:44:37.135Z,0.70
2023-04-15T09:47:07.489Z,1.30
2023-04-15T09:49:37.647Z,1.42
2023-04-15T09:52:43.291Z,1.58
2023-04-15T09:55:13.940Z,1.13
2023-04-15T09:57:44.645Z,8.75
2023-04-15T10:00:15.976Z,3.92
2023-04-15T10:05:18.931Z,1.15
2023-04-15T10:07:51.275Z,3.25
2023-04-15T10:10:22.123Z,3.53
2023-04-15T10:12:53.697Z,0.73
2023-04-15T10:15:25.708Z,5.72
2023-04-15T10:17:57.653Z,0.40
2023-04-15T10:20:30.380Z,3.85
2023-04-15T10:23:03.301Z,0.75
2023-04-15T10:25:35.166Z,7.60
2023-04-15T10:28:07.436Z,2.08
2023-04-15T10:30:37.902Z,1.42
2023-04-15T10:33:10.567Z,1.58
2023-04-15T10:35:41.328Z,4.18
2023-04-15T10:38:38.550Z,1.27
2023-04-15T10:41:21.042Z,0.45
2023-04-15T10:43:54.294Z,1.02
2023-04-15T10:46:26.679Z,1.13
2023-04-15T10:48:57.736Z,0.80
2023-04-15T10:51:29.721Z,1.63
2023-04-15T10:54:02.241Z,0.95
2023-04-15T10:56:32.432Z,0.63
2023-04-15T10:59:03.131Z,0.68
2023-04-15T11:01:52.771Z,0.95
2023-04-15T11:04:54.813Z,1.35
2023-04-15T11:07:43.577Z,0.85
2023-04-15T11:10:55.973Z,1.15
2023-04-15T11:13:31.478Z,2.00
2023-04-15T11:16:03.656Z,0.25
2023-04-15T11:18:35.500Z,1.63
2023-04-15T11:21:07.945Z,0.60
2023-04-15T11:23:41.387Z,4.80
2023-04-15T11:26:12.925Z,2.80
2023-04-15T11:28:46.730Z,2.03
2023-04-15T11:31:18.591Z,0.52
2023-04-15T11:33:55.271Z,1.55
2023-04-15T11:36:27.745Z,1.70
2023-04-15T11:38:59.838Z,0.85
2023-04-15T11:41:29.964Z,0.82
2023-04-15T11:44:02.351Z,3.72
2023-04-15T11:46:33.003Z,0.98
2023-04-15T11:49:04.888Z,0.52
2023-04-15T11:51:35.555Z,0.93
2023-04-15T11:54:04.809Z,3.20
2023-04-15T11:56:33.846Z,1.05
2023-04-15T11:59:04.600Z,1.67
2023-04-15T12:01:33.933Z,0.20
2023-04-15T12:04:04.601Z,8.45
2023-04-15T12:06:35.116Z,7.18
2023-04-15T12:09:10.639Z,10.85
2023-04-15T12:11:42.310Z,1.40
2023-04-15T12:14:17.246Z,0.80
2023-04-15T12:16:50.110Z,0.38
2023-04-15T12:19:25.195Z,0.88
2023-04-15T12:21:56.625Z,0.63
2023-04-15T12:24:26.339Z,0.73
2023-04-15T12:26:57.313Z,1.65
2023-04-15T12:29:30.234Z,1.85
2023-04-15T12:32:00.578Z,1.27
2023-04-15T12:34:31.677Z,0.40
2023-04-15T12:37:03.380Z,4.18
2023-04-15T12:39:34.058Z,1.17
2023-04-15T12:42:05.345Z,0.50
2023-04-15T12:44:38.039Z,0.80
2023-04-15T12:47:07.762Z,0.98
2023-04-15T12:49:37.763Z,1.85
2023-04-15T12:52:06.994Z,1.25
2023-04-15T12:54:36.200Z,1.73
2023-04-15T12:57:07.310Z,3.60
2023-04-15T12:59:37.934Z,1.35
2023-04-15T13:02:07.401Z,0.57
2023-04-15T13:04:36.381Z,0.60
2023-04-15T13:07:05.816Z,4.03
2023-04-15T13:09:35.304Z,0.40
2023-04-15T13:12:05.393Z,0.38
2023-04-15T13:14:34.265Z,3.05
2023-04-15T13:17:10.173Z,1.52
2023-04-15T13:19:40.071Z,0.57
2023-04-15T13:22:08.910Z,2.08
2023-04-15T13:24:39.229Z,1.67
2023-04-15T13:27:08.446Z,0.20
2023-04-15T13:29:37.811Z,0.60
2023-04-15T13:32:08.201Z,3.70
2023-04-15T13:34:37.039Z,3.60
2023-04-15T13:37:08.083Z,0.32
2023-04-15T13:39:36.970Z,3.20
2023-04-15T13:42:06.061Z,0.22
2023-04-15T13:44:35.193Z,1.60
2023-04-15T13:47:04.481Z,0.90
2023-04-15T13:49:34.708Z,0.63
2023-04-15T13:52:04.523Z,1.00
2023-04-15T13:54:37.594Z,3.13
2023-04-15T13:57:07.359Z,3.10
2023-04-15T13:59:36.271Z,1.73
2023-04-15T14:02:05.300Z,1.85
2023-04-15T14:04:35.577Z,0.43
2023-04-15T14:07:05.389Z,5.63
2023-04-15T14:09:35.411Z,2.05
2023-04-15T14:12:04.970Z,1.65
2023-04-15T14:14:34.109Z,1.50
2023-04-15T14:17:04.092Z,3.97
2023-04-15T14:19:33.232Z,1.70
2023-04-15T14:22:03.562Z,1.35
2023-04-15T14:24:32.451Z,1.45
2023-04-15T14:27:02.201Z,1.13
2023-04-15T14:29:31.248Z,1.13
2023-04-15T14:32:11.413Z,1.40
2023-04-15T14:34:41.876Z,2.00
2023-04-15T14:37:12.107Z,0.80
2023-04-15T14:39:41.152Z,1.67
2023-04-15T14:42:10.081Z,1.08
2023-04-15T14:44:39.062Z,2.50
2023-04-15T14:47:07.907Z,1.38
2023-04-15T14:49:36.815Z,4.55
2023-04-15T14:52:05.831Z,1.45
2023-04-15T14:54:36.140Z,1.17
2023-04-15T14:57:05.401Z,2.15
2023-04-15T14:59:34.263Z,0.65
2023-04-15T15:02:05.174Z,1.38
2023-04-15T15:04:34.184Z,1.15
2023-04-15T15:07:03.725Z,3.28
2023-04-15T15:09:34.519Z,1.50
2023-04-15T15:12:05.501Z,1.83
2023-04-15T15:14:34.342Z,3.50
2023-04-15T15:17:04.247Z,4.03
2023-04-15T15:19:33.108Z,1.38
2023-04-15T15:22:02.011Z,0.50
2023-04-15T15:24:30.884Z,1.02
2023-04-15T15:26:59.929Z,1.65
2023-04-15T15:29:30.064Z,1.83
2023-04-15T15:31:58.902Z,1.83
2023-04-15T15:34:27.954Z,0.77
2023-04-15T15:36:57.567Z,0.75
2023-04-15T15:39:26.582Z,0.90
2023-04-15T15:41:55.412Z,1.67
2023-04-15T15:44:24.248Z,0.52
2023-04-15T15:46:54.672Z,1.75
2023-04-15T15:49:25.380Z,3.40
2023-04-15T15:51:54.262Z,1.90
2023-04-15T15:54:23.108Z,0.80
2023-04-15T15:56:51.942Z,1.48
2023-04-15T15:59:20.765Z,1.10
2023-04-15T16:01:50.579Z,2.69
2023-04-15T16:04:21.111Z,3.00
2023-04-15T16:06:50.067Z,4.72
2023-04-15T16:09:18.991Z,4.05
2023-04-15T16:11:47.800Z,1.55
2023-04-15T16:14:16.662Z,2.30
2023-04-15T16:16:45.586Z,6.38
2023-04-15T16:19:15.330Z,2.90
2023-04-15T16:21:45.835Z,2.78
2023-04-15T16:24:14.681Z,2.83
2023-04-15T16:26:43.511Z,1.17
2023-04-15T16:29:12.473Z,3.80
2023-04-15T16:31:41.586Z,1.75
2023-04-15T16:34:11.131Z,1.00
2023-04-15T16:36:40.603Z,1.65
2023-04-15T16:39:11.274Z,2.83
2023-04-15T16:41:41.370Z,2.50
2023-04-15T16:44:10.940Z,3.85
2023-04-15T16:46:40.979Z,1.98
2023-04-15T16:49:10.097Z,12.48
2023-04-15T16:51:38.931Z,5.80
2023-04-15T16:54:07.716Z,4.10
2023-04-15T16:56:38.029Z,2.53
2023-04-15T16:59:06.870Z,6.28
2023-04-15T17:01:36.171Z,4.40
2023-04-15T17:04:05.763Z,4.80
2023-04-15T17:06:34.782Z,5.40
2023-04-15T17:09:04.061Z,11.15
2023-04-15T17:11:33.286Z,12.77
2023-04-15T17:14:04.184Z,21.30
2023-04-15T17:16:33.036Z,26.38
2023-04-15T17:19:02.163Z,10.55
2023-04-15T17:21:35.937Z,14.75
2023-04-15T17:24:05.168Z,24.50
2023-04-15T17:26:42.175Z,23.92
2023-04-15T17:29:13.549Z,26.23
2023-04-15T17:31:48.198Z,36.22
2023-04-15T17:34:50.119Z,47.78
2023-04-15T17:37:39.918Z,52.88
2023-04-15T17:40:28.658Z,29.73
2023-04-15T17:43:17.353Z,29.35
2023-04-15T17:46:07.770Z,32.92
2023-04-15T17:48:56.540Z,34.50
2023-04-15T17:51:46.689Z,28.45
2023-04-15T17:54:35.628Z,20.80
2023-04-15T17:57:25.284Z,19.45
2023-04-15T18:00:15.092Z,11.30
2023-04-15T18:03:05.612Z,18.20
2023-04-15T18:05:54.652Z,37.67
2023-04-15T18:08:43.438Z,29.98
2023-04-15T18:11:33.921Z,17.27
2023-04-15T18:14:33.634Z,20.00
2023-04-15T18:17:23.257Z,36.53
2023-04-15T18:20:14.026Z,19.27
2023-04-15T18:22:43.442Z,40.38
2023-04-15T18:25:12.263Z,36.55
2023-04-15T18:27:41.234Z,24.38
2023-04-15T18:30:11.415Z,34.45
2023-04-15T18:32:40.742Z,33.75
2023-04-15T18:35:11.253Z,26.35
2023-04-15T18:37:41.479Z,34.00
2023-04-15T18:40:11.099Z,48.38
2023-04-15T18:42:39.998Z,21.45
2023-04-15T18:45:09.683Z,23.30
2023-04-15T18:47:38.584Z,21.17
2023-04-15T18:50:08.839Z,17.40
2023-04-15T18:52:37.799Z,11.05
2023-04-15T18:55:08.857Z,8.80
2023-04-15T18:57:42.501Z,13.10
2023-04-15T19:00:15.945Z,18.15
2023-04-15T19:02:45.080Z,23.20
2023-04-15T19:05:14.246Z,10.57
2023-04-15T19:07:43.096Z,27.48
2023-04-15T19:10:13.538Z,30.15
2023-04-15T19:12:42.397Z,24.52
2023-04-15T19:15:11.947Z,22.08
2023-04-15T19:17:40.783Z,15.40
2023-04-15T19:20:10.227Z,23.13
2023-04-15T19:22:39.423Z,20.08
2023-04-15T19:25:08.675Z,42.50
2023-04-15T19:27:39.280Z,46.53
2023-04-15T19:30:09.440Z,33.17
2023-04-15T19:32:38.327Z,32.85
2023-04-15T19:35:10.058Z,32.30
2023-04-15T19:37:40.518Z,60.30
2023-04-15T19:40:10.722Z,20.25
2023-04-15T19:42:40.969Z,20.92
2023-04-15T19:45:10.945Z,25.27
2023-04-15T19:47:39.861Z,28.88
2023-04-15T19:50:11.335Z,35.72
2023-04-15T19:52:40.169Z,32.30
2023-04-15T19:55:09.544Z,24.65
2023-04-15T19:57:38.424Z,24.15
2023-04-15T20:00:10.571Z,37.97
2023-04-15T20:02:39.557Z,23.00
2023-04-15T20:05:09.969Z,26.20
2023-04-15T20:07:42.366Z,55.47
2023-04-15T20:10:13.257Z,60.30
2023-04-15T20:12:50.349Z,48.80
2023-04-15T20:15:24.099Z,50.75
2023-04-15T20:17:53.134Z,53.72
2023-04-15T20:20:22.669Z,48.25
2023-04-15T20:22:52.963Z,43.15
2023-04-15T20:25:21.852Z,42.22
2023-04-15T20:27:50.816Z,48.40
2023-04-15T20:30:19.718Z,55.10
2023-04-15T20:32:50.051Z,27.67
2023-04-15T20:35:19.874Z,15.52
2023-04-15T20:37:50.476Z,7.90
2023-04-15T20:40:19.526Z,15.68
2023-04-15T20:42:48.297Z,8.18
2023-04-15T20:45:17.350Z,11.07
2023-04-15T20:47:46.247Z,12.65
2023-04-15T20:50:16.547Z,8.07
2023-04-15T20:52:45.344Z,7.78
2023-04-15T20:55:14.179Z,6.25
2023-04-15T20:57:43.055Z,6.15
2023-04-15T21:00:14.679Z,7.75
2023-04-15T21:02:43.873Z,6.38
2023-04-15T21:05:13.046Z,16.13
2023-04-15T21:07:43.228Z,6.18
2023-04-15T21:10:12.408Z,8.45
2023-04-15T21:12:42.626Z,7.28
2023-04-15T21:15:12.108Z,6.13
2023-04-15T21:17:41.702Z,5.43
2023-04-15T21:20:11.819Z,7.43
2023-04-15T21:22:41.313Z,7.53
2023-04-15T21:25:11.849Z,5.88
2023-04-15T21:27:40.713Z,6.43
2023-04-15T21:30:10.415Z,5.00
2023-04-15T21:32:39.424Z,6.28
2023-04-15T21:35:09.367Z,7.30
2023-04-15T21:37:38.754Z,7.03
2023-04-15T21:40:09.212Z,11.90
2023-04-15T21:42:39.423Z,9.20
2023-04-15T21:45:09.043Z,8.68
2023-04-15T21:47:59.699Z,6.53
2023-04-15T21:50:27.339Z,5.10
2023-04-15T21:52:56.283Z,14.10
2023-04-15T21:55:25.246Z,10.60
2023-04-15T21:57:55.449Z,12.40
2023-04-15T22:00:24.304Z,13.02
2023-04-15T22:02:53.850Z,14.90
2023-04-15T22:05:22.985Z,12.50
2023-04-15T22:07:51.805Z,11.63
2023-04-15T22:10:21.347Z,19.88
2023-04-15T22:12:50.189Z,14.98
2023-04-15T22:15:20.722Z,13.75
2023-04-15T22:17:49.665Z,8.52
2023-04-15T22:20:18.654Z,13.45
2023-04-15T22:22:47.551Z,12.15
2023-04-15T22:25:16.477Z,11.18
2023-04-15T22:27:45.372Z,14.25
2023-04-15T22:30:14.581Z,11.98
2023-04-15T22:32:44.972Z,12.95
2023-04-15T22:35:13.839Z,17.30
2023-04-15T22:37:42.675Z,16.77
2023-04-15T22:40:12.650Z,17.10
2023-04-15T22:42:41.588Z,17.88
2023-04-15T22:45:11.369Z,18.70
2023-04-15T22:47:40.255Z,21.75
2023-04-15T22:50:11.078Z,26.77
2023-04-15T22:52:40.032Z,15.63
2023-04-15T22:55:09.996Z,16.23
2023-04-15T22:57:38.847Z,9.05
2023-04-15T23:00:08.795Z,13.15
2023-04-15T23:02:37.826Z,14.85
2023-04-15T23:05:12.686Z,37.75
2023-04-15T23:10:12.189Z,22.25
2023-04-15T23:12:41.008Z,26.77
2023-04-15T23:15:10.653Z,30.70
2023-04-15T23:17:39.788Z,27.23
2023-04-15T23:20:09.139Z,24.60
2023-04-15T23:22:38.641Z,18.88
2023-04-15T23:25:09.813Z,14.20
2023-04-15T23:27:38.670Z,11.23
2023-04-15T23:30:08.747Z,12.57
2023-04-15T23:32:37.696Z,11.60
2023-04-15T23:35:07.036Z,11.18
2023-04-15T23:37:35.916Z,17.50
2023-04-15T23:40:05.429Z,18.13
2023-04-15T23:42:35.688Z,20.00
2023-04-15T23:45:04.660Z,14.70
2023-04-15T23:47:33.697Z,23.10
2023-04-15T23:50:02.747Z,66.57
2023-04-15T23:52:31.661Z,41.90
2023-04-15T23:55:00.508Z,24.40
2023-04-15T23:57:29.645Z,22.38
